Time;durP1;ratioP1;P1;durP2;ratioP2;P2;SDS_P1;SDS_P2;PMS_P1;PMS_P2;Temp;Humidity;BMP_temperature;BMP_pressure;BME280_temperature;BME280_humidity;BME280_pressure;Samples;Min_cycle;Max_cycle;Signal;HPM_P1;HPM_P2
2022/03/22 00:00:20;;;;;;;22.05;13.40;;;;;;;;;;4899404;29;20196;-77
2022/03/22 00:02:46;;;;;;;23.00;13.80;;;;;;;;;;4901956;29;20181;-76
2022/03/22 00:05:12;;;;;;;19.85;12.85;;;;;;;;;;4919898;29;20314;-76
2022/03/22 00:07:38;;;;;;;25.30;12.45;;;;;;;;;;4919840;29;20177;-77
2022/03/22 00:10:04;;;;;;;28.00;14.17;;;;;;;;;;4919447;29;20176;-77
2022/03/22 00:12:31;;;;;;;25.52;14.65;;;;;;;;;;4919402;29;20523;-75
2022/03/22 00:14:58;;;;;;;20.38;12.70;;;;;;;;;;4902369;29;20188;-77
2022/03/22 00:17:24;;;;;;;19.60;13.40;;;;;;;;;;4901060;29;20578;-77
2022/03/22 00:19:50;;;;;;;19.70;12.77;;;;;;;;;;4900853;29;20194;-78
2022/03/22 00:22:16;;;;;;;19.50;12.50;;;;;;;;;;4900275;29;20808;-78
2022/03/22 00:24:42;;;;;;;22.75;13.13;;;;;;;;;;4913849;29;20470;-77
2022/03/22 00:27:08;;;;;;;18.27;13.80;;;;;;;;;;4919473;29;20669;-77
2022/03/22 00:29:34;;;;;;;22.27;13.05;;;;;;;;;;4919382;29;20896;-77
2022/03/22 00:32:00;;;;;;;20.23;13.98;;;;;;;;;;4918908;29;20539;-77
2022/03/22 00:34:26;;;;;;;22.58;12.88;;;;;;;;;;4907562;29;20182;-75
2022/03/22 00:36:54;;;;;;;19.20;12.80;;;;;;;;;;4900365;29;20189;-78
2022/03/22 00:39:20;;;;;;;21.38;12.65;;;;;;;;;;4900235;29;20569;-77
2022/03/22 00:41:46;;;;;;;19.85;12.90;;;;;;;;;;4899943;29;20200;-76
2022/03/22 00:44:13;;;;;;;18.50;12.60;;;;;;;;;;4901937;29;20216;-78
2022/03/22 00:46:39;;;;;;;19.92;13.50;;;;;;;;;;4917815;29;20776;-77
2022/03/22 00:49:05;;;;;;;23.52;14.95;;;;;;;;;;4918983;29;20543;-77
2022/03/22 00:51:32;;;;;;;16.97;13.30;;;;;;;;;;4918564;29;20207;-76
2022/03/22 00:54:02;;;;;;;18.88;13.35;;;;;;;;;;4918477;29;20757;-76
2022/03/22 00:56:28;;;;;;;18.52;13.00;;;;;;;;;;4904148;29;20242;-77
2022/03/22 01:00:01;;;;;;;20.48;14.75;;;;;;;;;;4918854;29;20247;-78
2022/03/22 01:01:40;;;;;;;24.75;14.60;;;;;;;;;;4918657;29;20216;-78
2022/03/22 01:04:07;;;;;;;26.98;15.15;;;;;;;;;;4917351;29;20246;-75
2022/03/22 01:06:33;;;;;;;26.83;15.90;;;;;;;;;;4899741;29;20183;-77
2022/03/22 01:09:00;;;;;;;30.45;16.33;;;;;;;;;;4899870;29;20547;-76
2022/03/22 01:11:26;;;;;;;23.30;16.10;;;;;;;;;;4899557;29;20261;-77
2022/03/22 01:13:56;;;;;;;28.05;15.70;;;;;;;;;;4900873;29;20219;-76
2022/03/22 01:16:22;;;;;;;26.40;16.92;;;;;;;;;;4918579;29;20207;-76
2022/03/22 01:18:48;;;;;;;24.03;16.07;;;;;;;;;;4932908;29;20223;-76
2022/03/22 01:21:14;;;;;;;24.53;16.43;;;;;;;;;;4918060;29;20436;-78
2022/03/22 01:23:40;;;;;;;23.60;16.37;;;;;;;;;;4918240;29;20479;-78
2022/03/22 01:26:06;;;;;;;23.27;17.10;;;;;;;;;;4932645;29;20849;-78
2022/03/22 01:28:32;;;;;;;26.40;16.20;;;;;;;;;;4918358;29;20431;-76
2022/03/22 01:30:58;;;;;;;25.55;16.17;;;;;;;;;;4917766;29;20442;-78
2022/03/22 01:33:24;;;;;;;23.83;16.97;;;;;;;;;;4916935;29;20202;-76
2022/03/22 01:35:50;;;;;;;25.73;17.60;;;;;;;;;;4916361;29;20835;-75
2022/03/22 01:38:16;;;;;;;24.30;16.50;;;;;;;;;;4918200;29;20191;-79
2022/03/22 01:40:42;;;;;;;28.55;18.10;;;;;;;;;;4917620;29;20443;-78
2022/03/22 01:43:08;;;;;;;28.02;17.38;;;;;;;;;;4917825;29;20290;-75
2022/03/22 01:45:35;;;;;;;30.98;18.45;;;;;;;;;;4905489;29;20272;-75
2022/03/22 01:48:02;;;;;;;28.95;17.15;;;;;;;;;;4898980;29;20190;-76
2022/03/22 01:50:29;;;;;;;24.58;17.73;;;;;;;;;;4897421;29;20193;-77
2022/03/22 01:52:56;;;;;;;30.38;18.42;;;;;;;;;;4898791;29;20586;-78
2022/03/22 01:55:23;;;;;;;28.30;17.42;;;;;;;;;;4909317;29;20583;-77
2022/03/22 01:57:50;;;;;;;26.00;17.20;;;;;;;;;;4917680;29;20270;-78
2022/03/22 02:00:20;;;;;;;31.00;18.75;;;;;;;;;;4917690;29;20202;-78
2022/03/22 02:08:18;;;;;;;25.38;16.95;;;;;;;;;;4898146;29;20198;-77
2022/03/22 02:10:44;;;;;;;24.98;16.52;;;;;;;;;;4897110;29;20195;-76
2022/03/22 02:13:10;;;;;;;27.45;17.13;;;;;;;;;;4898578;29;20668;-77
2022/03/22 02:15:36;;;;;;;31.88;17.40;;;;;;;;;;4908811;29;20194;-77
2022/03/22 02:18:02;;;;;;;26.63;17.90;;;;;;;;;;4917448;29;20190;-77
2022/03/22 02:20:29;;;;;;;27.23;17.17;;;;;;;;;;4916990;29;20420;-76
2022/03/22 02:23:13;;;;;;;22.15;15.98;;;;;;;;;;4917274;29;20190;-78
2022/03/22 02:25:39;;;;;;;23.85;16.42;;;;;;;;;;4905375;29;20662;-78
2022/03/22 02:28:05;;;;;;;28.95;16.90;;;;;;;;;;4898571;29;20184;-78
2022/03/22 02:30:32;;;;;;;26.77;17.80;;;;;;;;;;4898878;29;20214;-76
2022/03/22 02:33:01;;;;;;;27.77;16.75;;;;;;;;;;4898303;29;20173;-78
2022/03/22 02:35:28;;;;;;;26.30;16.20;;;;;;;;;;4899281;29;20215;-76
2022/03/22 02:37:54;;;;;;;32.35;16.55;;;;;;;;;;4898360;29;20653;-78
2022/03/22 02:40:20;;;;;;;24.00;15.90;;;;;;;;;;4896702;29;20289;-76
2022/03/22 02:42:51;;;;;;;25.40;17.20;;;;;;;;;;4898281;29;20176;-76
2022/03/22 02:45:17;;;;;;;23.35;15.50;;;;;;;;;;4908878;29;20186;-77
2022/03/22 02:47:43;;;;;;;21.60;15.60;;;;;;;;;;4917046;29;20206;-76
2022/03/22 02:50:10;;;;;;;25.38;16.20;;;;;;;;;;4916741;29;20185;-77
2022/03/22 02:52:36;;;;;;;27.42;17.08;;;;;;;;;;4917222;29;20206;-76
2022/03/22 02:55:04;;;;;;;22.50;15.65;;;;;;;;;;4908326;29;20175;-77
2022/03/22 02:57:30;;;;;;;27.27;16.40;;;;;;;;;;4881224;29;20667;-78
2022/03/22 02:59:55;;;;;;;22.63;15.83;;;;;;;;;;4898075;29;20190;-75
2022/03/22 03:02:21;;;;;;;25.30;16.83;;;;;;;;;;4897749;29;20507;-76
2022/03/22 03:04:47;;;;;;;23.40;16.50;;;;;;;;;;4902631;29;20477;-79
2022/03/22 03:07:13;;;;;;;26.33;16.27;;;;;;;;;;4916774;29;20439;-79
2022/03/22 03:09:39;;;;;;;28.03;16.00;;;;;;;;;;4918330;29;20421;-76
2022/03/22 03:12:06;;;;;;;28.47;15.90;;;;;;;;;;4920310;29;20451;-78
2022/03/22 03:14:41;;;;;;;26.02;16.63;;;;;;;;;;4920224;29;20847;-75
2022/03/22 03:17:07;;;;;;;26.60;15.13;;;;;;;;;;4920874;29;20210;-79
2022/03/22 03:19:34;;;;;;;22.23;15.55;;;;;;;;;;4935247;29;20186;-78
2022/03/22 03:22:00;;;;;;;24.38;17.02;;;;;;;;;;4934809;29;20253;-76
2022/03/22 03:24:26;;;;;;;21.67;14.47;;;;;;;;;;4923038;29;20219;-79
2022/03/22 03:26:52;;;;;;;28.83;16.98;;;;;;;;;;4920494;29;20403;-78
2022/03/22 03:29:18;;;;;;;24.67;16.67;;;;;;;;;;4920490;29;20242;-75
2022/03/22 03:31:44;;;;;;;29.97;16.13;;;;;;;;;;4919272;29;20234;-78
2022/03/22 03:34:10;;;;;;;23.70;14.40;;;;;;;;;;4920317;29;20423;-77
2022/03/22 03:36:36;;;;;;;29.27;16.80;;;;;;;;;;4934913;29;20422;-77
2022/03/22 03:39:03;;;;;;;24.63;16.25;;;;;;;;;;4920196;29;20548;-76
2022/03/22 03:47:09;;;;;;;21.92;14.70;;;;;;;;;;4901571;29;20202;-77
2022/03/22 03:49:45;;;;;;;26.02;16.23;;;;;;;;;;4901224;29;20186;-76
2022/03/22 03:52:18;;;;;;;26.40;15.80;;;;;;;;;;4900768;29;20238;-76
2022/03/22 03:54:44;;;;;;;22.25;15.70;;;;;;;;;;4901225;29;20215;-78
2022/03/22 03:57:10;;;;;;;29.80;17.00;;;;;;;;;;4901013;29;20184;-78
2022/03/22 03:59:37;;;;;;;26.77;16.30;;;;;;;;;;4901081;29;20269;-77
2022/03/22 04:02:03;;;;;;;30.50;17.35;;;;;;;;;;4906882;29;20210;-75
2022/03/22 04:04:30;;;;;;;26.17;17.15;;;;;;;;;;4919857;29;20575;-77
2022/03/22 04:06:56;;;;;;;30.88;16.13;;;;;;;;;;4919955;29;20186;-77
2022/03/22 04:09:22;;;;;;;21.98;15.45;;;;;;;;;;4919742;29;20548;-78
2022/03/22 04:11:48;;;;;;;20.05;14.98;;;;;;;;;;4915632;29;20687;-76
2022/03/22 04:14:14;;;;;;;26.60;17.67;;;;;;;;;;4900664;29;20183;-75
2022/03/22 04:16:40;;;;;;;24.63;16.23;;;;;;;;;;4900620;29;20179;-78
2022/03/22 04:19:07;;;;;;;24.60;15.93;;;;;;;;;;4900895;29;20533;-75
2022/03/22 04:21:34;;;;;;;20.88;15.77;;;;;;;;;;4899238;29;20208;-75
2022/03/22 04:24:10;;;;;;;26.00;15.05;;;;;;;;;;4900361;29;20222;-77
2022/03/22 04:26:37;;;;;;;21.15;14.85;;;;;;;;;;4900582;29;20210;-77
2022/03/22 04:34:32;;;;;;;25.88;16.50;;;;;;;;;;4901499;29;20723;-74
2022/03/22 04:36:59;;;;;;;22.05;14.70;;;;;;;;;;4900540;29;20207;-76
2022/03/22 04:39:26;;;;;;;26.60;15.75;;;;;;;;;;4900543;29;20176;-78
2022/03/22 04:41:53;;;;;;;20.48;13.80;;;;;;;;;;4900062;29;20578;-76
2022/03/22 04:44:19;;;;;;;22.67;16.60;;;;;;;;;;4901297;29;20577;-78
2022/03/22 04:46:46;;;;;;;23.52;15.38;;;;;;;;;;4918973;29;20187;-77
2022/03/22 04:49:12;;;;;;;24.42;15.80;;;;;;;;;;4919042;29;20564;-78
2022/03/22 04:57:08;;;;;;;20.83;15.30;;;;;;;;;;4900330;29;20302;-76
2022/03/22 04:59:34;;;;;;;23.20;16.10;;;;;;;;;;4900041;29;20664;-79
2022/03/22 05:02:00;;;;;;;24.35;14.90;;;;;;;;;;4899582;29;20218;-78
2022/03/22 05:04:26;;;;;;;20.10;13.83;;;;;;;;;;4901434;29;20244;-78
2022/03/22 05:06:54;;;;;;;23.90;15.10;;;;;;;;;;4919007;29;20418;-77
2022/03/22 05:09:20;;;;;;;22.65;14.20;;;;;;;;;;4918864;29;20472;-76
2022/03/22 05:11:46;;;;;;;22.08;15.30;;;;;;;;;;4918441;29;20209;-77
2022/03/22 05:14:12;;;;;;;24.23;15.65;;;;;;;;;;4918634;29;20178;-78
2022/03/22 05:16:39;;;;;;;24.65;14.70;;;;;;;;;;4900805;29;20198;-75
2022/03/22 05:19:05;;;;;;;20.10;15.18;;;;;;;;;;4899684;29;20175;-76
2022/03/22 05:21:31;;;;;;;21.58;14.30;;;;;;;;;;4899122;29;20203;-77
2022/03/22 05:23:58;;;;;;;18.77;13.65;;;;;;;;;;4899317;29;20259;-77
2022/03/22 05:26:26;;;;;;;22.25;13.93;;;;;;;;;;4916250;29;20186;-76
2022/03/22 05:28:52;;;;;;;19.63;13.85;;;;;;;;;;4918515;29;20666;-75
2022/03/22 05:31:18;;;;;;;21.90;15.15;;;;;;;;;;4917805;29;20283;-77
2022/03/22 05:33:44;;;;;;;22.08;12.82;;;;;;;;;;4917686;29;20181;-77
2022/03/22 05:36:11;;;;;;;18.23;13.70;;;;;;;;;;4917724;29;20179;-78
2022/03/22 05:38:37;;;;;;;26.40;14.43;;;;;;;;;;4918080;29;20296;-77
2022/03/22 05:41:03;;;;;;;22.70;14.07;;;;;;;;;;4917850;29;20217;-76
2022/03/22 05:43:30;;;;;;;21.10;14.90;;;;;;;;;;4932547;29;20210;-78
2022/03/22 05:45:56;;;;;;;25.58;14.63;;;;;;;;;;4906688;29;20505;-76
2022/03/22 05:48:23;;;;;;;26.38;14.88;;;;;;;;;;4899117;29;20219;-77
2022/03/22 05:50:49;;;;;;;24.25;15.48;;;;;;;;;;4898587;29;20291;-77
2022/03/22 05:53:15;;;;;;;21.00;13.68;;;;;;;;;;4899072;29;20191;-77
2022/03/22 05:55:41;;;;;;;20.40;13.95;;;;;;;;;;4907944;29;20608;-77
2022/03/22 05:58:08;;;;;;;22.40;15.38;;;;;;;;;;4917861;29;20255;-76
2022/03/22 06:00:35;;;;;;;23.58;15.63;;;;;;;;;;4917784;29;20210;-76
2022/03/22 06:03:01;;;;;;;22.27;14.52;;;;;;;;;;4917537;29;20187;-77
2022/03/22 06:05:28;;;;;;;22.85;15.15;;;;;;;;;;4911593;29;20263;-77
2022/03/22 06:07:55;;;;;;;23.58;14.98;;;;;;;;;;4898812;29;20211;-77
2022/03/22 06:10:21;;;;;;;19.90;15.90;;;;;;;;;;4898084;29;20179;-75
2022/03/22 06:12:51;;;;;;;22.52;15.43;;;;;;;;;;4898588;29;20507;-79
2022/03/22 06:15:38;;;;;;;21.48;15.73;;;;;;;;;;4902946;29;20270;-75
2022/03/22 06:18:05;;;;;;;29.38;15.75;;;;;;;;;;4932466;29;20647;-76
2022/03/22 06:20:32;;;;;;;22.67;15.35;;;;;;;;;;4917158;29;20190;-76
2022/03/22 06:22:59;;;;;;;23.48;14.18;;;;;;;;;;4917314;29;20190;-75
2022/03/22 06:25:25;;;;;;;22.08;14.55;;;;;;;;;;4912053;29;20286;-75
2022/03/22 06:27:52;;;;;;;21.00;15.95;;;;;;;;;;4898592;29;20180;-76
2022/03/22 06:30:18;;;;;;;21.75;15.32;;;;;;;;;;4898000;29;20190;-77
2022/03/22 06:32:51;;;;;;;23.67;14.88;;;;;;;;;;4898272;29;20259;-77
2022/03/22 06:35:19;;;;;;;25.30;14.80;;;;;;;;;;4907899;29;20193;-75
2022/03/22 06:37:45;;;;;;;24.60;15.38;;;;;;;;;;4917136;29;20185;-79
2022/03/22 06:40:11;;;;;;;26.85;15.52;;;;;;;;;;4916925;29;20193;-74
2022/03/22 06:42:37;;;;;;;28.00;15.90;;;;;;;;;;4917067;29;20576;-74
2022/03/22 06:45:05;;;;;;;31.83;16.38;;;;;;;;;;4907717;29;20215;-76
2022/03/22 06:47:31;;;;;;;30.13;16.80;;;;;;;;;;4898005;29;20187;-77
2022/03/22 06:49:57;;;;;;;26.08;17.60;;;;;;;;;;4897987;29;20182;-78
2022/03/22 06:52:23;;;;;;;22.92;16.33;;;;;;;;;;4896439;29;20203;-76
2022/03/22 06:54:49;;;;;;;22.75;15.65;;;;;;;;;;4903644;29;20672;-77
2022/03/22 06:57:15;;;;;;;25.77;14.83;;;;;;;;;;4916731;29;20182;-76
2022/03/22 06:59:41;;;;;;;21.85;14.98;;;;;;;;;;4916853;29;20407;-77
2022/03/22 07:02:08;;;;;;;21.48;15.07;;;;;;;;;;4916601;29;20213;-77
2022/03/22 07:04:34;;;;;;;21.98;14.73;;;;;;;;;;4912829;29;20210;-76
2022/03/22 07:07:00;;;;;;;24.80;15.70;;;;;;;;;;4897987;29;20179;-78
2022/03/22 07:09:26;;;;;;;23.83;15.57;;;;;;;;;;4897863;29;20473;-78
2022/03/22 07:11:52;;;;;;;27.15;16.08;;;;;;;;;;4896400;29;20857;-77
2022/03/22 07:14:26;;;;;;;21.17;14.93;;;;;;;;;;4898105;29;20185;-74
2022/03/22 07:16:52;;;;;;;23.63;14.25;;;;;;;;;;4905281;29;20198;-77
2022/03/22 07:19:20;;;;;;;22.77;15.57;;;;;;;;;;4908693;29;20196;-77
2022/03/22 07:21:46;;;;;;;30.05;14.95;;;;;;;;;;4897442;29;20211;-77
2022/03/22 07:24:12;;;;;;;26.30;15.30;;;;;;;;;;4897756;29;20624;-77
2022/03/22 07:26:39;;;;;;;21.42;15.07;;;;;;;;;;4916118;29;20209;-78
2022/03/22 07:29:05;;;;;;;22.73;14.93;;;;;;;;;;4916902;29;20234;-77
2022/03/22 07:31:34;;;;;;;23.30;15.18;;;;;;;;;;4916351;29;20191;-79
2022/03/22 07:34:00;;;;;;;20.15;15.10;;;;;;;;;;4916665;29;20292;-77
2022/03/22 07:36:26;;;;;;;23.93;15.40;;;;;;;;;;4900116;29;20288;-76
2022/03/22 07:38:52;;;;;;;24.87;16.10;;;;;;;;;;4897842;29;20423;-76
2022/03/22 07:41:18;;;;;;;21.27;16.30;;;;;;;;;;4897452;29;20493;-76
2022/03/22 07:43:44;;;;;;;23.50;14.73;;;;;;;;;;4897571;29;20476;-77
2022/03/22 07:46:10;;;;;;;27.03;16.63;;;;;;;;;;4898671;29;20817;-77
2022/03/22 07:48:36;;;;;;;24.15;16.08;;;;;;;;;;4899907;29;20470;-76
2022/03/22 07:53:46;;;;;;;25.20;17.53;;;;;;;;;;4916419;29;20548;-75
2022/03/22 07:56:13;;;;;;;24.23;17.77;;;;;;;;;;4918716;29;20512;-75
2022/03/22 07:58:39;;;;;;;27.40;17.93;;;;;;;;;;4934556;29;20439;-76
2022/03/22 08:01:05;;;;;;;24.93;18.57;;;;;;;;;;4934154;29;20439;-76
2022/03/22 08:03:31;;;;;;;24.50;18.27;;;;;;;;;;4919622;29;20600;-77
2022/03/22 08:05:57;;;;;;;26.20;16.50;;;;;;;;;;4919575;29;20870;-78
2022/03/22 08:08:23;;;;;;;25.57;18.73;;;;;;;;;;4919795;29;20407;-78
2022/03/22 08:10:49;;;;;;;27.33;17.63;;;;;;;;;;4919265;29;20428;-76
2022/03/22 08:13:15;;;;;;;22.20;16.40;;;;;;;;;;4919774;29;20427;-78
2022/03/22 08:15:41;;;;;;;26.03;17.93;;;;;;;;;;4919457;29;20473;-76
2022/03/22 08:18:07;;;;;;;25.10;16.20;;;;;;;;;;4934105;29;20912;-76
2022/03/22 08:20:33;;;;;;;24.30;16.83;;;;;;;;;;4933626;29;20874;-78
2022/03/22 08:23:03;;;;;;;25.40;17.00;;;;;;;;;;4916470;29;20442;-79
2022/03/22 08:25:31;;;;;;;21.97;16.83;;;;;;;;;;4908495;29;20428;-77
2022/03/22 08:27:59;;;;;;;19.53;14.80;;;;;;;;;;4919256;29;20884;-76
2022/03/22 08:30:25;;;;;;;23.17;17.17;;;;;;;;;;4933803;29;20446;-77
2022/03/22 08:32:52;;;;;;;23.17;16.80;;;;;;;;;;4919311;29;20488;-77
2022/03/22 08:35:19;;;;;;;25.00;16.77;;;;;;;;;;4919375;29;20417;-77
2022/03/22 08:37:45;;;;;;;30.50;17.50;;;;;;;;;;4919330;29;20413;-77
2022/03/22 08:40:13;;;;;;;22.80;18.53;;;;;;;;;;4918880;29;20456;-77
2022/03/22 08:42:43;;;;;;;23.83;16.67;;;;;;;;;;4933624;29;20958;-78
2022/03/22 08:45:10;;;;;;;25.23;17.50;;;;;;;;;;4919112;29;20485;-77
2022/03/22 08:47:36;;;;;;;28.40;16.87;;;;;;;;;;4918936;29;20418;-77
2022/03/22 08:50:05;;;;;;;30.07;17.73;;;;;;;;;;4918949;29;20386;-78
2022/03/22 08:52:31;;;;;;;22.20;15.67;;;;;;;;;;4918671;29;21003;-75
2022/03/22 08:54:57;;;;;;;23.63;16.53;;;;;;;;;;4918937;29;20393;-77
2022/03/22 08:57:23;;;;;;;21.90;17.40;;;;;;;;;;4918902;29;20409;-78
2022/03/22 08:59:49;;;;;;;21.73;16.67;;;;;;;;;;4918942;29;20423;-79
2022/03/22 09:02:15;;;;;;;25.90;16.80;;;;;;;;;;4918268;29;21006;-78
2022/03/22 09:07:26;;;;;;;23.37;17.30;;;;;;;;;;4918447;29;20410;-78
2022/03/22 09:09:52;;;;;;;26.23;18.07;;;;;;;;;;4918661;29;20772;-75
2022/03/22 09:12:18;;;;;;;24.60;17.60;;;;;;;;;;4918119;29;20409;-76
2022/03/22 09:14:44;;;;;;;24.33;17.53;;;;;;;;;;4918623;29;20867;-76
2022/03/22 09:17:10;;;;;;;31.27;17.30;;;;;;;;;;4918651;29;20419;-76
2022/03/22 09:19:36;;;;;;;20.80;17.80;;;;;;;;;;4918690;29;20790;-75
2022/03/22 09:22:05;;;;;;;23.30;17.40;;;;;;;;;;4932698;29;20447;-76
2022/03/22 09:24:31;;;;;;;20.23;17.53;;;;;;;;;;4918162;29;20536;-75
2022/03/22 09:26:57;;;;;;;21.57;17.30;;;;;;;;;;4933173;29;20510;-75
2022/03/22 09:29:23;;;;;;;21.33;17.30;;;;;;;;;;4918423;29;20517;-77
2022/03/22 09:31:49;;;;;;;25.83;16.93;;;;;;;;;;4918017;29;20435;-75
2022/03/22 09:34:16;;;;;;;23.40;16.27;;;;;;;;;;4918077;29;20935;-77
2022/03/22 09:36:42;;;;;;;18.70;15.53;;;;;;;;;;4918207;29;20817;-75
2022/03/22 09:39:08;;;;;;;20.20;15.80;;;;;;;;;;4918458;29;20462;-76
2022/03/22 09:41:34;;;;;;;16.53;14.83;;;;;;;;;;4932447;29;20458;-75
2022/03/22 09:44:01;;;;;;;19.33;15.47;;;;;;;;;;4917764;29;20458;-76
2022/03/22 09:46:27;;;;;;;17.57;14.13;;;;;;;;;;4917917;29;20457;-73
2022/03/22 09:48:53;;;;;;;18.00;14.77;;;;;;;;;;4932512;29;20427;-76
2022/03/22 09:54:04;;;;;;;22.60;13.97;;;;;;;;;;4918087;29;20482;-73
2022/03/22 09:56:31;;;;;;;16.10;14.40;;;;;;;;;;4917388;29;20454;-77
2022/03/22 09:58:58;;;;;;;17.30;14.07;;;;;;;;;;4917682;29;20446;-75
2022/03/22 10:01:24;;;;;;;15.13;13.50;;;;;;;;;;4917305;29;20442;-76
2022/03/22 10:04:00;;;;;;;17.93;14.63;;;;;;;;;;4917746;29;20462;-76
2022/03/22 10:06:27;;;;;;;15.10;12.17;;;;;;;;;;4926351;29;20429;-76
2022/03/22 10:08:53;;;;;;;15.03;13.60;;;;;;;;;;4917720;29;20423;-72
2022/03/22 10:11:20;;;;;;;16.00;13.80;;;;;;;;;;4917107;29;20514;-73
2022/03/22 10:13:55;;;;;;;14.67;13.03;;;;;;;;;;4917348;29;20458;-74
2022/03/22 10:16:22;;;;;;;13.03;10.63;;;;;;;;;;4917858;29;20762;-75
2022/03/22 10:18:48;;;;;;;16.53;9.90;;;;;;;;;;4931784;29;20790;-76
2022/03/22 10:21:14;;;;;;;15.53;10.20;;;;;;;;;;4916983;29;20458;-75
2022/03/22 10:23:51;;;;;;;12.53;10.70;;;;;;;;;;4917173;29;20470;-75
2022/03/22 10:26:17;;;;;;;11.20;8.83;;;;;;;;;;4917458;29;20407;-73
2022/03/22 10:28:53;;;;;;;10.83;9.73;;;;;;;;;;4917435;29;20414;-76
2022/03/22 10:31:20;;;;;;;11.37;8.47;;;;;;;;;;4916892;29;20434;-77
2022/03/22 10:33:53;;;;;;;9.60;8.57;;;;;;;;;;4917102;29;20506;-77
2022/03/22 10:36:21;;;;;;;15.13;8.93;;;;;;;;;;4931589;29;20423;-78
2022/03/22 10:38:57;;;;;;;13.57;8.77;;;;;;;;;;4917134;29;21017;-78
2022/03/22 10:41:24;;;;;;;10.40;8.30;;;;;;;;;;4916666;29;20438;-78
2022/03/22 10:44:00;;;;;;;9.40;8.20;;;;;;;;;;4917185;29;20841;-78
2022/03/22 10:46:27;;;;;;;8.67;7.87;;;;;;;;;;4931647;29;20423;-77
2022/03/22 10:49:01;;;;;;;9.30;8.33;;;;;;;;;;4931583;29;20427;-77
2022/03/22 10:51:37;;;;;;;13.13;8.30;;;;;;;;;;4916784;29;20446;-78
2022/03/22 10:54:03;;;;;;;9.37;8.40;;;;;;;;;;4917310;29;20399;-78
2022/03/22 10:56:30;;;;;;;13.40;9.10;;;;;;;;;;4931581;29;20437;-77
2022/03/22 10:58:57;;;;;;;10.40;8.23;;;;;;;;;;4931374;29;20987;-78
2022/03/22 11:01:24;;;;;;;10.97;8.63;;;;;;;;;;4916615;29;20538;-77
2022/03/22 11:03:51;;;;;;;9.63;8.57;;;;;;;;;;4916856;29;20468;-75
2022/03/22 11:06:19;;;;;;;13.60;9.07;;;;;;;;;;4917027;29;20447;-77
2022/03/22 11:08:45;;;;;;;9.70;8.47;;;;;;;;;;4931450;29;20446;-77
2022/03/22 11:11:11;;;;;;;12.20;9.73;;;;;;;;;;4916383;29;20872;-77
2022/03/22 11:13:37;;;;;;;12.37;10.70;;;;;;;;;;4916877;29;20415;-76
2022/03/22 11:16:03;;;;;;;11.13;10.03;;;;;;;;;;4916894;29;20956;-79
2022/03/22 11:18:30;;;;;;;12.80;9.53;;;;;;;;;;4917029;29;20425;-76
2022/03/22 11:21:00;;;;;;;12.57;10.83;;;;;;;;;;4916464;29;20434;-78
2022/03/22 11:23:27;;;;;;;11.83;10.20;;;;;;;;;;4916786;29;20439;-79
2022/03/22 11:25:53;;;;;;;12.43;8.47;;;;;;;;;;4916932;29;20475;-76
2022/03/22 11:28:20;;;;;;;10.03;8.90;;;;;;;;;;4916849;29;20430;-76
2022/03/22 11:30:47;;;;;;;10.03;9.00;;;;;;;;;;4918148;29;20525;-79
2022/03/22 11:36:01;;;;;;;9.43;8.37;;;;;;;;;;4920501;29;20402;-78
2022/03/22 11:38:39;;;;;;;11.83;8.83;;;;;;;;;;4920256;29;20411;-78
2022/03/22 11:43:49;;;;;;;8.60;7.70;;;;;;;;;;4920424;29;20979;-78
2022/03/22 11:46:15;;;;;;;9.93;8.93;;;;;;;;;;4920138;29;20421;-77
2022/03/22 11:48:41;;;;;;;9.47;7.67;;;;;;;;;;4920100;29;20442;-77
2022/03/22 11:51:08;;;;;;;9.10;8.17;;;;;;;;;;4919726;29;20534;-78
2022/03/22 11:53:42;;;;;;;10.47;9.47;;;;;;;;;;4920047;29;20832;-78
2022/03/22 11:56:08;;;;;;;11.80;8.50;;;;;;;;;;4919957;29;20971;-76
2022/03/22 11:58:34;;;;;;;10.33;9.20;;;;;;;;;;4919844;29;20415;-76
2022/03/22 12:01:01;;;;;;;10.13;7.87;;;;;;;;;;4934269;29;20516;-78
2022/03/22 12:03:31;;;;;;;9.17;8.27;;;;;;;;;;4919668;29;20417;-77
2022/03/22 12:05:58;;;;;;;9.50;8.63;;;;;;;;;;4919913;29;20411;-77
2022/03/22 12:08:26;;;;;;;9.80;8.63;;;;;;;;;;4919793;29;20421;-75
2022/03/22 12:10:59;;;;;;;9.83;8.53;;;;;;;;;;4919669;29;20884;-76
2022/03/22 12:13:26;;;;;;;12.70;9.07;;;;;;;;;;4919912;29;20418;-79
2022/03/22 12:15:56;;;;;;;10.23;9.00;;;;;;;;;;4919824;29;20652;-74
2022/03/22 12:18:27;;;;;;;12.33;9.47;;;;;;;;;;4919834;29;20402;-76
2022/03/22 12:20:56;;;;;;;15.17;10.10;;;;;;;;;;4919342;29;20431;-77
2022/03/22 12:23:22;;;;;;;11.40;10.30;;;;;;;;;;4919534;29;20474;-78
2022/03/22 12:25:48;;;;;;;12.00;10.13;;;;;;;;;;4919421;29;20415;-78
2022/03/22 12:28:16;;;;;;;11.50;8.80;;;;;;;;;;4919375;29;20410;-78
2022/03/22 12:30:42;;;;;;;11.43;9.80;;;;;;;;;;4919115;29;20434;-78
2022/03/22 12:33:18;;;;;;;10.27;9.27;;;;;;;;;;4919584;29;20421;-76
2022/03/22 12:35:44;;;;;;;13.07;10.10;;;;;;;;;;4933863;29;20474;-77
2022/03/22 12:38:11;;;;;;;12.83;9.87;;;;;;;;;;4919308;29;20415;-77
2022/03/22 12:40:37;;;;;;;10.47;9.47;;;;;;;;;;4919095;29;20443;-78
2022/03/22 12:43:04;;;;;;;10.90;9.40;;;;;;;;;;4919244;29;20418;-76
2022/03/22 12:45:33;;;;;;;10.47;9.47;;;;;;;;;;4919045;29;20466;-79
2022/03/22 12:48:00;;;;;;;10.87;8.93;;;;;;;;;;4919169;29;20407;-79
2022/03/22 12:50:30;;;;;;;10.37;9.33;;;;;;;;;;4918801;29;20510;-77
2022/03/22 12:52:56;;;;;;;15.20;8.97;;;;;;;;;;4919111;29;20458;-77
2022/03/22 12:55:22;;;;;;;10.00;9.00;;;;;;;;;;4918937;29;20493;-77
2022/03/22 12:57:51;;;;;;;9.83;8.90;;;;;;;;;;4918798;29;20465;-77
2022/03/22 13:00:39;;;;;;;10.73;9.10;;;;;;;;;;4918582;29;20434;-76
2022/03/22 13:03:07;;;;;;;10.73;8.13;;;;;;;;;;4918949;29;20411;-76
2022/03/22 13:05:33;;;;;;;9.50;8.60;;;;;;;;;;4918638;29;20454;-78
2022/03/22 13:07:59;;;;;;;11.77;7.97;;;;;;;;;;4918617;29;20893;-76
2022/03/22 13:13:17;;;;;;;13.03;9.20;;;;;;;;;;4919263;29;20453;-76
2022/03/22 13:15:53;;;;;;;9.50;8.47;;;;;;;;;;4918919;29;20564;-78
2022/03/22 13:18:19;;;;;;;9.57;8.67;;;;;;;;;;4919185;29;20409;-77
2022/03/22 13:20:46;;;;;;;9.30;8.40;;;;;;;;;;4918109;29;20486;-77
2022/03/22 13:23:15;;;;;;;10.03;8.60;;;;;;;;;;4918256;29;20481;-78
2022/03/22 13:25:42;;;;;;;10.53;8.57;;;;;;;;;;4918645;29;20736;-78
2022/03/22 13:28:09;;;;;;;9.03;8.13;;;;;;;;;;4932977;29;20419;-78
2022/03/22 13:30:36;;;;;;;9.40;8.33;;;;;;;;;;4918002;29;20407;-78
2022/03/22 13:33:13;;;;;;;9.67;8.60;;;;;;;;;;4918194;29;20419;-78
2022/03/22 13:35:40;;;;;;;8.93;8.13;;;;;;;;;;4918430;29;20900;-77
2022/03/22 13:38:13;;;;;;;9.13;8.23;;;;;;;;;;4918190;29;20411;-78
2022/03/22 13:40:43;;;;;;;9.40;8.50;;;;;;;;;;4917807;29;20522;-77
2022/03/22 13:43:10;;;;;;;11.20;8.77;;;;;;;;;;4918097;29;20504;-78
2022/03/22 13:45:37;;;;;;;9.90;8.77;;;;;;;;;;4917929;29;21035;-77
2022/03/22 13:48:07;;;;;;;9.50;8.60;;;;;;;;;;4918086;29;20438;-77
2022/03/22 13:50:33;;;;;;;8.93;8.03;;;;;;;;;;4917607;29;20478;-78
2022/03/22 13:53:06;;;;;;;10.10;8.63;;;;;;;;;;4932131;29;20451;-76
2022/03/22 13:55:36;;;;;;;11.00;8.17;;;;;;;;;;4917885;29;20431;-78
2022/03/22 13:58:07;;;;;;;12.97;8.77;;;;;;;;;;4917855;29;20455;-77
2022/03/22 14:00:33;;;;;;;10.57;9.57;;;;;;;;;;4917359;29;20415;-77
2022/03/22 14:02:59;;;;;;;10.27;9.13;;;;;;;;;;4917785;29;20425;-77
2022/03/22 14:05:25;;;;;;;10.40;9.03;;;;;;;;;;4917772;29;20473;-79
2022/03/22 14:07:51;;;;;;;10.87;9.77;;;;;;;;;;4917838;29;20415;-78
2022/03/22 14:10:17;;;;;;;11.47;10.33;;;;;;;;;;4917236;29;20414;-77
2022/03/22 14:12:45;;;;;;;12.17;8.30;;;;;;;;;;4917620;29;20426;-77
2022/03/22 14:15:11;;;;;;;9.80;8.90;;;;;;;;;;4917788;29;20415;-77
2022/03/22 14:17:37;;;;;;;10.23;9.23;;;;;;;;;;4917797;29;20854;-77
2022/03/22 14:20:05;;;;;;;15.50;9.60;;;;;;;;;;4917704;29;20426;-77
2022/03/22 14:22:31;;;;;;;10.77;8.47;;;;;;;;;;4931486;29;20447;-78
2022/03/22 14:24:57;;;;;;;10.33;9.10;;;;;;;;;;4917466;29;20476;-77
2022/03/22 14:27:23;;;;;;;10.20;9.13;;;;;;;;;;4917439;29;20415;-77
2022/03/22 14:29:49;;;;;;;11.83;8.73;;;;;;;;;;4917437;29;20421;-78
2022/03/22 14:32:15;;;;;;;10.17;9.17;;;;;;;;;;4931500;29;20450;-78
2022/03/22 14:37:26;;;;;;;10.37;9.37;;;;;;;;;;4917493;29;20490;-76
2022/03/22 14:39:52;;;;;;;10.40;9.30;;;;;;;;;;4917078;29;20506;-78
2022/03/22 14:42:18;;;;;;;10.27;9.20;;;;;;;;;;4931460;29;20851;-76
2022/03/22 14:44:44;;;;;;;10.87;9.33;;;;;;;;;;4916790;29;20513;-76
2022/03/22 14:47:11;;;;;;;10.43;9.33;;;;;;;;;;4916957;29;20403;-77
2022/03/22 14:49:40;;;;;;;9.83;8.77;;;;;;;;;;4917019;29;20410;-77
2022/03/22 14:54:51;;;;;;;11.97;10.77;;;;;;;;;;4916886;29;20888;-77
2022/03/22 15:00:03;;;;;;;12.03;10.33;;;;;;;;;;4917366;29;20417;-76
2022/03/22 15:02:28;;;;;;;11.90;10.53;;;;;;;;;;4916623;29;20443;-77
2022/03/22 15:04:56;;;;;;;10.37;8.73;;;;;;;;;;4917102;29;20461;-79
2022/03/22 15:07:22;;;;;;;12.50;9.93;;;;;;;;;;4920847;29;20466;-76